Arcadia, Texas
Current Conditions -  °F | °C
As of 10:07 AM on Saturday 20 Dec 2014 (Local Time) from KLVJ Reporting Station
Overcast Overcast  
Wind Chill: 54°   Ceiling: 1000
Heat Index: 54°   Visibility: 7mi
Dew Point: 50°   Wind: 8mph
Humidity: 86%   Direction: 40°NE
Pressure: 30.23"   Gusts: NA
Location:  29.3723°N, 95.1328°W
Report Text: KLVJ 201607Z AUTO 04007KT 7SM OVC010 12/10 A3023 RMK AO2 T01220100
Loading
Personal Weather Stations






























Interactive Weather Map New forecast layout! Learn more

10-Day Weather Forecast

Advertisements
Track Severe Weather on mobile